sensor_id;sensor_type;location;lat;lon;timestamp;pressure;altitude;pressure_sealevel;temperature;humidity
14117;BME280;7137;51.436;6.544;2024-01-30T00:02:24;102303.44;;;9.13;99.82
14117;BME280;7137;51.436;6.544;2024-01-30T00:05:25;102304.31;;;9.10;100.00
14117;BME280;7137;51.436;6.544;2024-01-30T00:08:27;102305.19;;;9.08;99.56
14117;BME280;7137;51.436;6.544;2024-01-30T00:11:28;102301.72;;;9.06;99.86
14117;BME280;7137;51.436;6.544;2024-01-30T00:14:31;102303.44;;;9.04;100.00
14117;BME280;7137;51.436;6.544;2024-01-30T00:17:33;102303.44;;;9.02;100.00
14117;BME280;7137;51.436;6.544;2024-01-30T00:20:34;102299.97;;;9.03;99.65
14117;BME280;7137;51.436;6.544;2024-01-30T00:23:36;102303.44;;;9.07;100.00
14117;BME280;7137;51.436;6.544;2024-01-30T00:26:39;102297.34;;;9.00;100.00
14117;BME280;7137;51.436;6.544;2024-01-30T00:29:42;102290.41;;;8.99;99.22
14117;BME280;7137;51.436;6.544;2024-01-30T00:32:43;102292.13;;;8.91;100.00
14117;BME280;7137;51.436;6.544;2024-01-30T00:35:45;102284.31;;;8.89;99.66
14117;BME280;7137;51.436;6.544;2024-01-30T00:38:47;102288.66;;;8.75;100.00
14117;BME280;7137;51.436;6.544;2024-01-30T00:41:48;102294.72;;;8.79;100.00
14117;BME280;7137;51.436;6.544;2024-01-30T00:44:51;102290.38;;;8.81;100.00
14117;BME280;7137;51.436;6.544;2024-01-30T00:47:53;102293.84;;;8.71;100.00
14117;BME280;7137;51.436;6.544;2024-01-30T00:50:55;102294.69;;;8.67;100.00
14117;BME280;7137;51.436;6.544;2024-01-30T00:53:56;102293.84;;;8.61;100.00
14117;BME280;7137;51.436;6.544;2024-01-30T00:56:57;102297.31;;;8.60;100.00
14117;BME280;7137;51.436;6.544;2024-01-30T01:00:01;102301.66;;;8.66;100.00
14117;BME280;7137;51.436;6.544;2024-01-30T01:03:07;102297.31;;;8.63;100.00
14117;BME280;7137;51.436;6.544;2024-01-30T01:06:09;102295.56;;;8.61;100.00
14117;BME280;7137;51.436;6.544;2024-01-30T01:09:11;102290.38;;;8.64;100.00
14117;BME280;7137;51.436;6.544;2024-01-30T01:12:12;102296.44;;;8.65;100.00
14117;BME280;7137;51.436;6.544;2024-01-30T01:15:15;102293.84;;;8.61;100.00
14117;BME280;7137;51.436;6.544;2024-01-30T01:18:16;102290.34;;;8.67;100.00
14117;BME280;7137;51.436;6.544;2024-01-30T01:21:19;102295.56;;;8.69;100.00
14117;BME280;7137;51.436;6.544;2024-01-30T01:24:25;102290.34;;;8.70;100.00
14117;BME280;7137;51.436;6.544;2024-01-30T01:27:27;102288.63;;;8.61;100.00
14117;BME280;7137;51.436;6.544;2024-01-30T01:30:29;102289.50;;;8.71;100.00
14117;BME280;7137;51.436;6.544;2024-01-30T01:33:31;102290.34;;;8.67;100.00
14117;BME280;7137;51.436;6.544;2024-01-30T01:36:33;102287.75;;;8.67;100.00
14117;BME280;7137;51.436;6.544;2024-01-30T01:39:35;102287.75;;;8.69;100.00
14117;BME280;7137;51.436;6.544;2024-01-30T01:42:37;102279.06;;;8.63;100.00
14117;BME280;7137;51.436;6.544;2024-01-30T01:45:40;102281.69;;;8.65;100.00
14117;BME280;7137;51.436;6.544;2024-01-30T01:48:41;102282.56;;;8.61;100.00
14117;BME280;7137;51.436;6.544;2024-01-30T01:51:45;102276.47;;;8.62;100.00
14117;BME280;7137;51.436;6.544;2024-01-30T01:54:48;102279.06;;;8.59;100.00
14117;BME280;7137;51.436;6.544;2024-01-30T01:57:50;102279.94;;;8.62;100.00
14117;BME280;7137;51.436;6.544;2024-01-30T02:00:53;102272.09;;;8.55;100.00
14117;BME280;7137;51.436;6.544;2024-01-30T02:03:55;102266.03;;;8.48;100.00
14117;BME280;7137;51.436;6.544;2024-01-30T02:06:57;102269.50;;;8.53;100.00
14117;BME280;7137;51.436;6.544;2024-01-30T02:09:58;102266.91;;;8.52;100.00
14117;BME280;7137;51.436;6.544;2024-01-30T02:13:00;102263.41;;;8.51;100.00
14117;BME280;7137;51.436;6.544;2024-01-30T02:20:00;102258.19;;;8.44;100.00
14117;BME280;7137;51.436;6.544;2024-01-30T02:23:04;102253.84;;;8.38;100.00
14117;BME280;7137;51.436;6.544;2024-01-30T02:26:05;102252.09;;;8.39;100.00
14117;BME280;7137;51.436;6.544;2024-01-30T02:29:07;102251.25;;;8.37;100.00
14117;BME280;7137;51.436;6.544;2024-01-30T02:32:11;102239.94;;;8.36;100.00
14117;BME280;7137;51.436;6.544;2024-01-30T02:35:14;102247.75;;;8.35;100.00
14117;BME280;7137;51.436;6.544;2024-01-30T02:38:17;102238.19;;;8.32;100.00
14117;BME280;7137;51.436;6.544;2024-01-30T02:41:18;102237.34;;;8.35;100.00
14117;BME280;7137;51.436;6.544;2024-01-30T02:44:20;102244.28;;;8.40;100.00
14117;BME280;7137;51.436;6.544;2024-01-30T02:47:21;102237.34;;;8.38;100.00
14117;BME280;7137;51.436;6.544;2024-01-30T02:50:23;102241.66;;;8.31;100.00
14117;BME280;7137;51.436;6.544;2024-01-30T02:53:26;102237.28;;;8.27;100.00
14117;BME280;7137;51.436;6.544;2024-01-30T02:56:27;102237.28;;;8.27;100.00
14117;BME280;7137;51.436;6.544;2024-01-30T02:59:29;102226.00;;;8.22;100.00
14117;BME280;7137;51.436;6.544;2024-01-30T03:02:33;102231.22;;;8.19;100.00
14117;BME280;7137;51.436;6.544;2024-01-30T03:05:34;102229.47;;;8.21;100.00
14117;BME280;7137;51.436;6.544;2024-01-30T03:08:39;102221.66;;;8.25;100.00
14117;BME280;7137;51.436;6.544;2024-01-30T03:11:40;102219.94;;;8.21;100.00
14117;BME280;7137;51.436;6.544;2024-01-30T03:14:42;102231.22;;;8.22;100.00
14117;BME280;7137;51.436;6.544;2024-01-30T03:17:43;102223.41;;;8.20;100.00
14117;BME280;7137;51.436;6.544;2024-01-30T03:20:45;102232.06;;;8.25;100.00
14117;BME280;7137;51.436;6.544;2024-01-30T03:23:48;102232.06;;;8.24;100.00
14117;BME280;7137;51.436;6.544;2024-01-30T03:26:49;102230.34;;;8.20;100.00
14117;BME280;7137;51.436;6.544;2024-01-30T03:29:51;102216.47;;;8.19;100.00
14117;BME280;7137;51.436;6.544;2024-01-30T03:32:52;102222.50;;;8.12;100.00
14117;BME280;7137;51.436;6.544;2024-01-30T03:35:54;102219.88;;;8.11;100.00
14117;BME280;7137;51.436;6.544;2024-01-30T03:38:56;102215.53;;;8.07;100.00
14117;BME280;7137;51.436;6.544;2024-01-30T03:41:58;102219.88;;;8.06;100.00
14117;BME280;7137;51.436;6.544;2024-01-30T03:44:59;102225.97;;;8.13;100.00
14117;BME280;7137;51.436;6.544;2024-01-30T03:48:01;102209.47;;;8.09;100.00
14117;BME280;7137;51.436;6.544;2024-01-30T03:51:05;102218.16;;;8.03;100.00
14117;BME280;7137;51.436;6.544;2024-01-30T03:54:10;102212.06;;;8.03;100.00
14117;BME280;7137;51.436;6.544;2024-01-30T03:57:12;102207.72;;;8.02;100.00
14117;BME280;7137;51.436;6.544;2024-01-30T04:00:14;102199.91;;;8.02;100.00
14117;BME280;7137;51.436;6.544;2024-01-30T04:03:16;102186.03;;;7.98;100.00
14117;BME280;7137;51.436;6.544;2024-01-30T04:06:17;102188.63;;;7.95;100.00
14117;BME280;7137;51.436;6.544;2024-01-30T04:09:20;102188.63;;;7.97;100.00
14117;BME280;7137;51.436;6.544;2024-01-30T04:12:22;102192.09;;;8.02;100.00
14117;BME280;7137;51.436;6.544;2024-01-30T04:15:25;102192.09;;;7.99;100.00
14117;BME280;7137;51.436;6.544;2024-01-30T04:18:26;102192.09;;;7.96;100.00
14117;BME280;7137;51.436;6.544;2024-01-30T04:21:28;102194.69;;;7.94;100.00
14117;BME280;7137;51.436;6.544;2024-01-30T04:24:31;102191.22;;;7.97;100.00
14117;BME280;7137;51.436;6.544;2024-01-30T04:27:33;102193.81;;;7.97;100.00
14117;BME280;7137;51.436;6.544;2024-01-30T04:30:34;102186.03;;;7.95;100.00
14117;BME280;7137;51.436;6.544;2024-01-30T04:33:38;102186.88;;;7.94;100.00
14117;BME280;7137;51.436;6.544;2024-01-30T04:36:44;102181.69;;;7.93;100.00
14117;BME280;7137;51.436;6.544;2024-01-30T04:39:47;102182.53;;;7.93;100.00
14117;BME280;7137;51.436;6.544;2024-01-30T04:42:49;102192.94;;;7.93;100.00
14117;BME280;7137;51.436;6.544;2024-01-30T04:45:51;102186.03;;;7.95;100.00
14117;BME280;7137;51.436;6.544;2024-01-30T04:48:52;102182.56;;;7.98;100.00
14117;BME280;7137;51.436;6.544;2024-01-30T04:51:54;102194.69;;;8.00;100.00
14117;BME280;7137;51.436;6.544;2024-01-30T04:54:57;102185.16;;;7.99;100.00
14117;BME280;7137;51.436;6.544;2024-01-30T04:57:58;102191.22;;;8.00;100.00
14117;BME280;7137;51.436;6.544;2024-01-30T05:01:00;102191.22;;;7.98;100.00
14117;BME280;7137;51.436;6.544;2024-01-30T05:04:01;102189.53;;;8.05;100.00
14117;BME280;7137;51.436;6.544;2024-01-30T05:07:04;102192.13;;;8.10;100.00
14117;BME280;7137;51.436;6.544;2024-01-30T05:10:07;102179.16;;;8.17;100.00
14117;BME280;7137;51.436;6.544;2024-01-30T05:13:09;102186.09;;;8.18;100.00
14117;BME280;7137;51.436;6.544;2024-01-30T05:16:14;102181.75;;;8.19;100.00
14117;BME280;7137;51.436;6.544;2024-01-30T05:19:16;102185.22;;;8.18;100.00
14117;BME280;7137;51.436;6.544;2024-01-30T05:22:19;102173.91;;;8.13;100.00
14117;BME280;7137;51.436;6.544;2024-01-30T05:25:22;102169.56;;;8.10;100.00
14117;BME280;7137;51.436;6.544;2024-01-30T05:28:23;102168.72;;;8.05;100.00
14117;BME280;7137;51.436;6.544;2024-01-30T05:31:25;102172.19;;;8.07;100.00
14117;BME280;7137;51.436;6.544;2024-01-30T05:34:27;102164.38;;;8.10;100.00
14117;BME280;7137;51.436;6.544;2024-01-30T05:37:28;102165.25;;;8.06;100.00
14117;BME280;7137;51.436;6.544;2024-01-30T05:40:31;102160.03;;;8.04;100.00
14117;BME280;7137;51.436;6.544;2024-01-30T05:43:33;102160.03;;;8.03;100.00
14117;BME280;7137;51.436;6.544;2024-01-30T05:46:35;102161.78;;;8.06;100.00
14117;BME280;7137;51.436;6.544;2024-01-30T05:49:36;102153.97;;;8.09;100.00
14117;BME280;7137;51.436;6.544;2024-01-30T05:52:39;102163.50;;;8.07;100.00
14117;BME280;7137;51.436;6.544;2024-01-30T05:55:42;102160.03;;;8.09;100.00
14117;BME280;7137;51.436;6.544;2024-01-30T05:58:43;102166.09;;;8.10;100.00
14117;BME280;7137;51.436;6.544;2024-01-30T06:01:48;102163.53;;;8.17;100.00
14117;BME280;7137;51.436;6.544;2024-01-30T06:04:49;102165.28;;;8.18;100.00
14117;BME280;7137;51.436;6.544;2024-01-30T06:07:51;102176.53;;;8.23;100.00
14117;BME280;7137;51.436;6.544;2024-01-30T06:10:54;102167.88;;;8.29;100.00
14117;BME280;7137;51.436;6.544;2024-01-30T06:13:55;102173.94;;;8.29;100.00
14117;BME280;7137;51.436;6.544;2024-01-30T06:16:57;102172.22;;;8.28;100.00
14117;BME280;7137;51.436;6.544;2024-01-30T06:19:58;102166.13;;;8.26;100.00
14117;BME280;7137;51.436;6.544;2024-01-30T06:22:59;102172.22;;;8.21;100.00
14117;BME280;7137;51.436;6.544;2024-01-30T06:26:03;102164.44;;;8.33;100.00
14117;BME280;7137;51.436;6.544;2024-01-30T06:29:04;102156.59;;;8.24;100.00
14117;BME280;7137;51.436;6.544;2024-01-30T06:32:06;102166.13;;;8.22;100.00
14117;BME280;7137;51.436;6.544;2024-01-30T06:35:08;102155.72;;;8.25;100.00
14117;BME280;7137;51.436;6.544;2024-01-30T06:38:10;102160.06;;;8.23;100.00
14117;BME280;7137;51.436;6.544;2024-01-30T06:41:13;102162.66;;;8.18;100.00
14117;BME280;7137;51.436;6.544;2024-01-30T06:44:14;102167.00;;;8.19;100.00
14117;BME280;7137;51.436;6.544;2024-01-30T06:47:16;102175.69;;;8.26;100.00
14117;BME280;7137;51.436;6.544;2024-01-30T06:50:17;102173.94;;;8.22;100.00
14117;BME280;7137;51.436;6.544;2024-01-30T06:53:20;102177.41;;;8.22;100.00
14117;BME280;7137;51.436;6.544;2024-01-30T06:56:23;102173.06;;;8.29;100.00
14117;BME280;7137;51.436;6.544;2024-01-30T06:59:24;102180.88;;;8.27;100.00
14117;BME280;7137;51.436;6.544;2024-01-30T07:02:26;102173.06;;;8.21;100.00
14117;BME280;7137;51.436;6.544;2024-01-30T07:05:27;102169.59;;;8.24;100.00
14117;BME280;7137;51.436;6.544;2024-01-30T07:08:29;102170.47;;;8.21;100.00
14117;BME280;7137;51.436;6.544;2024-01-30T07:11:31;102173.94;;;8.23;100.00
14117;BME280;7137;51.436;6.544;2024-01-30T07:14:33;102186.09;;;8.21;100.00
14117;BME280;7137;51.436;6.544;2024-01-30T07:17:35;102183.47;;;8.24;100.00
14117;BME280;7137;51.436;6.544;2024-01-30T07:20:37;102180.88;;;8.29;100.00
14117;BME280;7137;51.436;6.544;2024-01-30T07:23:43;102192.19;;;8.32;100.00
14117;BME280;7137;51.436;6.544;2024-01-30T07:26:45;102195.69;;;8.36;100.00
14117;BME280;7137;51.436;6.544;2024-01-30T07:29:47;102199.16;;;8.41;100.00
14117;BME280;7137;51.436;6.544;2024-01-30T07:32:49;102201.75;;;8.44;100.00
14117;BME280;7137;51.436;6.544;2024-01-30T07:35:52;102203.50;;;8.44;100.00
14117;BME280;7137;51.436;6.544;2024-01-30T07:38:54;102208.72;;;8.44;100.00
14117;BME280;7137;51.436;6.544;2024-01-30T07:41:56;102204.41;;;8.49;100.00
14117;BME280;7137;51.436;6.544;2024-01-30T07:44:58;102217.41;;;8.50;100.00
14117;BME280;7137;51.436;6.544;2024-01-30T07:48:00;102220.03;;;8.52;100.00
14117;BME280;7137;51.436;6.544;2024-01-30T07:51:01;102219.16;;;8.51;100.00
14117;BME280;7137;51.436;6.544;2024-01-30T07:54:04;102217.41;;;8.50;100.00
14117;BME280;7137;51.436;6.544;2024-01-30T07:57:07;102221.78;;;8.62;100.00
14117;BME280;7137;51.436;6.544;2024-01-30T08:00:10;102227.84;;;8.64;100.00
14117;BME280;7137;51.436;6.544;2024-01-30T08:03:11;102228.72;;;8.69;100.00
14117;BME280;7137;51.436;6.544;2024-01-30T08:06:13;102238.25;;;8.72;100.00
14117;BME280;7137;51.436;6.544;2024-01-30T08:09:15;102243.50;;;8.79;100.00
14117;BME280;7137;51.436;6.544;2024-01-30T08:12:18;102247.81;;;8.82;100.00
14117;BME280;7137;51.436;6.544;2024-01-30T08:15:20;102251.31;;;8.95;100.00
14117;BME280;7137;51.436;6.544;2024-01-30T08:18:22;102249.56;;;8.98;100.00
14117;BME280;7137;51.436;6.544;2024-01-30T08:21:23;102236.53;;;8.95;100.00
14117;BME280;7137;51.436;6.544;2024-01-30T08:24:25;102245.22;;;8.92;100.00
14117;BME280;7137;51.436;6.544;2024-01-30T08:27:28;102244.38;;;9.03;99.50
14117;BME280;7137;51.436;6.544;2024-01-30T08:30:29;102250.44;;;9.15;99.21
14117;BME280;7137;51.436;6.544;2024-01-30T08:33:30;102246.09;;;9.13;99.23
14117;BME280;7137;51.436;6.544;2024-01-30T08:36:32;102242.63;;;9.21;99.50
14117;BME280;7137;51.436;6.544;2024-01-30T08:39:33;102244.34;;;9.18;99.82
14117;BME280;7137;51.436;6.544;2024-01-30T08:42:36;102244.34;;;9.13;98.97
14117;BME280;7137;51.436;6.544;2024-01-30T08:45:38;102254.78;;;9.22;98.84
14117;BME280;7137;51.436;6.544;2024-01-30T08:48:39;102260.88;;;9.20;98.22
14117;BME280;7137;51.436;6.544;2024-01-30T08:51:41;102258.25;;;9.25;98.40
14117;BME280;7137;51.436;6.544;2024-01-30T08:54:42;102258.25;;;9.29;98.02
14117;BME280;7137;51.436;6.544;2024-01-30T08:57:45;102261.72;;;9.28;98.58
14117;BME280;7137;51.436;6.544;2024-01-30T09:00:47;102270.41;;;9.33;99.22
14117;BME280;7137;51.436;6.544;2024-01-30T09:03:49;102278.25;;;9.32;98.76
14117;BME280;7137;51.436;6.544;2024-01-30T09:06:52;102275.63;;;9.33;99.12
14117;BME280;7137;51.436;6.544;2024-01-30T09:09:54;102277.34;;;9.42;100.00
14117;BME280;7137;51.436;6.544;2024-01-30T09:12:57;102275.59;;;9.55;99.24
14117;BME280;7137;51.436;6.544;2024-01-30T09:15:59;102270.34;;;9.71;99.17
14117;BME280;7137;51.436;6.544;2024-01-30T09:19:03;102286.81;;;9.84;98.36
14117;BME280;7137;51.436;6.544;2024-01-30T09:22:08;102287.66;;;10.01;97.32
14117;BME280;7137;51.436;6.544;2024-01-30T09:25:10;102285.00;;;10.07;96.55
14117;BME280;7137;51.436;6.544;2024-01-30T09:28:13;102270.16;;;10.20;95.90
14117;BME280;7137;51.436;6.544;2024-01-30T09:31:15;102264.91;;;10.31;95.66
14117;BME280;7137;51.436;6.544;2024-01-30T09:34:18;102267.50;;;10.35;94.38
14117;BME280;7137;51.436;6.544;2024-01-30T09:37:20;102279.75;;;10.23;95.24
14117;BME280;7137;51.436;6.544;2024-01-30T09:40:22;102269.31;;;10.17;95.37
14117;BME280;7137;51.436;6.544;2024-01-30T09:43:27;102279.72;;;10.32;94.47
14117;BME280;7137;51.436;6.544;2024-01-30T09:46:31;102273.56;;;10.44;94.09
14117;BME280;7137;51.436;6.544;2024-01-30T09:49:34;102282.16;;;10.59;93.36
14117;BME280;7137;51.436;6.544;2024-01-30T09:52:35;102281.22;;;10.73;93.36
14117;BME280;7137;51.436;6.544;2024-01-30T09:55:37;102284.56;;;10.91;92.71
14117;BME280;7137;51.436;6.544;2024-01-30T09:58:40;102276.53;;;11.14;91.53
14117;BME280;7137;51.436;6.544;2024-01-30T10:01:42;102267.84;;;11.09;91.37
14117;BME280;7137;51.436;6.544;2024-01-30T10:04:44;102276.56;;;11.10;90.99
14117;BME280;7137;51.436;6.544;2024-01-30T10:07:52;102280.94;;;11.08;91.36
14117;BME280;7137;51.436;6.544;2024-01-30T10:10:55;102287.94;;;11.04;91.49
14117;BME280;7137;51.436;6.544;2024-01-30T10:14:00;102283.50;;;11.15;91.53
14117;BME280;7137;51.436;6.544;2024-01-30T10:17:01;102291.13;;;11.41;90.43
14117;BME280;7137;51.436;6.544;2024-01-30T10:20:05;102296.03;;;11.73;88.69
14117;BME280;7137;51.436;6.544;2024-01-30T10:23:06;102295.03;;;11.88;88.63
14117;BME280;7137;51.436;6.544;2024-01-30T10:26:08;102289.59;;;12.03;87.43
14117;BME280;7137;51.436;6.544;2024-01-30T10:29:11;102299.22;;;12.03;87.59
14117;BME280;7137;51.436;6.544;2024-01-30T10:32:15;102304.22;;;12.21;88.25
14117;BME280;7137;51.436;6.544;2024-01-30T10:35:18;102305.28;;;12.06;87.10
14117;BME280;7137;51.436;6.544;2024-01-30T10:38:21;102300.72;;;12.21;86.57
14117;BME280;7137;51.436;6.544;2024-01-30T10:41:26;102304.31;;;12.13;87.69
14117;BME280;7137;51.436;6.544;2024-01-30T10:44:36;102301.72;;;12.10;87.07
14117;BME280;7137;51.436;6.544;2024-01-30T10:47:43;102298.50;;;11.88;88.64
14117;BME280;7137;51.436;6.544;2024-01-30T10:50:45;102307.16;;;11.94;89.41
14117;BME280;7137;51.436;6.544;2024-01-30T10:53:49;102301.22;;;11.76;89.32
14117;BME280;7137;51.436;6.544;2024-01-30T10:56:53;102303.69;;;11.92;89.07
14117;BME280;7137;51.436;6.544;2024-01-30T11:00:02;102300.38;;;11.74;89.63
14117;BME280;7137;51.436;6.544;2024-01-30T11:03:05;102295.09;;;11.80;90.97
14117;BME280;7137;51.436;6.544;2024-01-30T11:06:11;102287.94;;;11.98;89.89
14117;BME280;7137;51.436;6.544;2024-01-30T11:09:17;102296.31;;;12.24;89.32
14117;BME280;7137;51.436;6.544;2024-01-30T11:12:22;102298.25;;;12.10;88.73
14117;BME280;7137;51.436;6.544;2024-01-30T11:15:25;102295.75;;;12.01;90.20
14117;BME280;7137;51.436;6.544;2024-01-30T11:18:28;102294.06;;;11.94;90.56
14117;BME280;7137;51.436;6.544;2024-01-30T11:21:31;102297.53;;;11.96;91.13
14117;BME280;7137;51.436;6.544;2024-01-30T11:24:39;102298.25;;;12.10;90.32
14117;BME280;7137;51.436;6.544;2024-01-30T11:27:41;102299.28;;;11.98;90.24
14117;BME280;7137;51.436;6.544;2024-01-30T11:30:46;102291.50;;;11.91;91.01
14117;BME280;7137;51.436;6.544;2024-01-30T11:33:53;102284.94;;;12.27;90.38
14117;BME280;7137;51.436;6.544;2024-01-30T11:36:57;102290.22;;;12.24;90.87
14117;BME280;7137;51.436;6.544;2024-01-30T11:40:00;102287.59;;;12.25;90.04
14117;BME280;7137;51.436;6.544;2024-01-30T11:43:05;102282.47;;;12.14;90.04
14117;BME280;7137;51.436;6.544;2024-01-30T11:46:09;102290.28;;;12.19;91.03
14117;BME280;7137;51.436;6.544;2024-01-30T11:49:11;102291.97;;;12.25;92.19
14117;BME280;7137;51.436;6.544;2024-01-30T11:52:13;102291.91;;;12.29;90.55
14117;BME280;7137;51.436;6.544;2024-01-30T11:55:15;102283.16;;;12.29;90.73
14117;BME280;7137;51.436;6.544;2024-01-30T11:58:18;102279.69;;;12.28;91.64
14117;BME280;7137;51.436;6.544;2024-01-30T12:01:23;102282.44;;;12.17;90.80
14117;BME280;7137;51.436;6.544;2024-01-30T12:04:28;102285.91;;;12.19;92.31
14117;BME280;7137;51.436;6.544;2024-01-30T12:07:29;102278.97;;;12.15;90.96
14117;BME280;7137;51.436;6.544;2024-01-30T12:10:31;102277.06;;;12.28;91.54
14117;BME280;7137;51.436;6.544;2024-01-30T12:13:34;102284.78;;;12.39;90.68
14117;BME280;7137;51.436;6.544;2024-01-30T12:16:37;102278.78;;;12.29;92.34
14117;BME280;7137;51.436;6.544;2024-01-30T12:19:39;102270.81;;;12.37;92.16
14117;BME280;7137;51.436;6.544;2024-01-30T12:22:42;102286.41;;;12.47;90.43
14117;BME280;7137;51.436;6.544;2024-01-30T12:25:44;102285.69;;;12.35;92.69
14117;BME280;7137;51.436;6.544;2024-01-30T12:28:49;102281.94;;;12.56;92.92
14117;BME280;7137;51.436;6.544;2024-01-30T12:31:54;102278.59;;;12.44;91.82
14117;BME280;7137;51.436;6.544;2024-01-30T12:34:57;102278.47;;;12.52;92.86
14117;BME280;7137;51.436;6.544;2024-01-30T12:37:59;102277.63;;;12.50;95.03
14117;BME280;7137;51.436;6.544;2024-01-30T12:41:02;102285.66;;;12.39;93.99
14117;BME280;7137;51.436;6.544;2024-01-30T12:44:04;102285.47;;;12.53;94.41
14117;BME280;7137;51.436;6.544;2024-01-30T12:47:08;102282.03;;;12.48;94.79
14117;BME280;7137;51.436;6.544;2024-01-30T12:50:10;102284.66;;;12.48;94.86
14117;BME280;7137;51.436;6.544;2024-01-30T12:53:12;102288.84;;;12.60;96.11
14117;BME280;7137;51.436;6.544;2024-01-30T12:56:14;102286.19;;;12.61;93.61
14117;BME280;7137;51.436;6.544;2024-01-30T12:59:17;102283.31;;;12.78;94.06
14117;BME280;7137;51.436;6.544;2024-01-30T13:02:21;102291.38;;;12.67;94.96
14117;BME280;7137;51.436;6.544;2024-01-30T13:05:24;102288.53;;;12.79;93.88
14117;BME280;7137;51.436;6.544;2024-01-30T13:08:27;102295.53;;;12.79;93.99
14117;BME280;7137;51.436;6.544;2024-01-30T13:11:30;102289.28;;;12.89;92.17
14117;BME280;7137;51.436;6.544;2024-01-30T13:14:32;102297.22;;;12.85;93.37
14117;BME280;7137;51.436;6.544;2024-01-30T13:17:35;102289.97;;;13.00;91.19
14117;BME280;7137;51.436;6.544;2024-01-30T13:20:37;102291.13;;;12.84;90.84
14117;BME280;7137;51.436;6.544;2024-01-30T13:23:38;102299.91;;;12.82;92.35
14117;BME280;7137;51.436;6.544;2024-01-30T13:26:42;102294.66;;;12.82;92.03
14117;BME280;7137;51.436;6.544;2024-01-30T13:29:44;102294.59;;;12.85;92.51
14117;BME280;7137;51.436;6.544;2024-01-30T13:32:48;102287.75;;;12.74;92.74
14117;BME280;7137;51.436;6.544;2024-01-30T13:35:51;102293.09;;;12.68;91.19
14117;BME280;7137;51.436;6.544;2024-01-30T13:38:53;102304.69;;;12.54;93.17
14117;BME280;7137;51.436;6.544;2024-01-30T13:41:57;102296.66;;;12.63;91.25
14117;BME280;7137;51.436;6.544;2024-01-30T13:45:00;102305.38;;;12.65;90.57
14117;BME280;7137;51.436;6.544;2024-01-30T13:48:03;102314.97;;;12.67;91.92
14117;BME280;7137;51.436;6.544;2024-01-30T13:51:05;102311.59;;;12.59;89.96
14117;BME280;7137;51.436;6.544;2024-01-30T13:54:08;102317.47;;;12.75;89.11
14117;BME280;7137;51.436;6.544;2024-01-30T13:57:10;102316.47;;;12.84;89.89
14117;BME280;7137;51.436;6.544;2024-01-30T14:00:12;102310.25;;;12.89;89.26
14117;BME280;7137;51.436;6.544;2024-01-30T14:03:17;102303.88;;;13.05;87.50
14117;BME280;7137;51.436;6.544;2024-01-30T14:06:19;102307.22;;;13.15;87.35
14117;BME280;7137;51.436;6.544;2024-01-30T14:09:20;102310.47;;;13.32;85.99
14117;BME280;7137;51.436;6.544;2024-01-30T14:12:22;102310.66;;;13.20;85.76
14117;BME280;7137;51.436;6.544;2024-01-30T14:15:24;102304.50;;;13.23;86.72
14117;BME280;7137;51.436;6.544;2024-01-30T14:18:26;102325.03;;;12.95;86.72
14117;BME280;7137;51.436;6.544;2024-01-30T14:21:28;102335.28;;;12.53;87.05
14117;BME280;7137;51.436;6.544;2024-01-30T14:24:30;102341.69;;;12.29;86.29
14117;BME280;7137;51.436;6.544;2024-01-30T14:27:32;102348.03;;;12.07;83.35
14117;BME280;7137;51.436;6.544;2024-01-30T14:30:34;102347.03;;;12.18;83.06
14117;BME280;7137;51.436;6.544;2024-01-30T14:33:38;102348.75;;;12.21;82.36
14117;BME280;7137;51.436;6.544;2024-01-30T14:36:39;102360.09;;;12.23;81.82
14117;BME280;7137;51.436;6.544;2024-01-30T14:39:41;102363.72;;;12.13;81.73
14117;BME280;7137;51.436;6.544;2024-01-30T14:42:43;102369.94;;;12.01;82.46
14117;BME280;7137;51.436;6.544;2024-01-30T14:45:44;102369.09;;;11.96;84.03
14117;BME280;7137;51.436;6.544;2024-01-30T14:48:51;102376.81;;;12.10;83.85
14117;BME280;7137;51.436;6.544;2024-01-30T14:51:53;102369.94;;;12.01;83.84
14117;BME280;7137;51.436;6.544;2024-01-30T14:54:54;102372.63;;;11.94;83.39
14117;BME280;7137;51.436;6.544;2024-01-30T14:57:56;102366.66;;;11.81;83.41
14117;BME280;7137;51.436;6.544;2024-01-30T15:00:59;102380.63;;;11.77;81.21
14117;BME280;7137;51.436;6.544;2024-01-30T15:04:02;102385.00;;;11.79;80.30
14117;BME280;7137;51.436;6.544;2024-01-30T15:07:04;102385.88;;;11.80;77.48
14117;BME280;7137;51.436;6.544;2024-01-30T15:10:07;102387.59;;;11.78;77.85
14117;BME280;7137;51.436;6.544;2024-01-30T15:13:09;102396.34;;;11.75;77.50
14117;BME280;7137;51.436;6.544;2024-01-30T15:16:12;102408.56;;;11.76;77.56
14117;BME280;7137;51.436;6.544;2024-01-30T15:19:15;102404.28;;;11.65;77.15
14117;BME280;7137;51.436;6.544;2024-01-30T15:22:16;102416.50;;;11.66;76.62
14117;BME280;7137;51.436;6.544;2024-01-30T15:25:18;102419.97;;;11.68;75.83
14117;BME280;7137;51.436;6.544;2024-01-30T15:28:22;102425.22;;;11.65;75.51
14117;BME280;7137;51.436;6.544;2024-01-30T15:31:25;102430.72;;;11.31;76.10
14117;BME280;7137;51.436;6.544;2024-01-30T15:34:29;102422.91;;;11.25;76.21
14117;BME280;7137;51.436;6.544;2024-01-30T15:37:30;102429.03;;;11.27;75.73
14117;BME280;7137;51.436;6.544;2024-01-30T15:40:32;102436.75;;;11.39;75.85
14117;BME280;7137;51.436;6.544;2024-01-30T15:43:33;102447.28;;;11.32;76.43
14117;BME280;7137;51.436;6.544;2024-01-30T15:46:37;102451.63;;;11.34;76.48
14117;BME280;7137;51.436;6.544;2024-01-30T15:49:40;102455.94;;;11.40;76.12
14117;BME280;7137;51.436;6.544;2024-01-30T15:52:42;102462.94;;;11.38;76.40
14117;BME280;7137;51.436;6.544;2024-01-30T15:55:44;102462.13;;;11.31;76.47
14117;BME280;7137;51.436;6.544;2024-01-30T15:58:45;102466.50;;;11.29;76.89
14117;BME280;7137;51.436;6.544;2024-01-30T16:01:49;102470.84;;;11.30;76.97
14117;BME280;7137;51.436;6.544;2024-01-30T16:04:52;102470.00;;;11.25;76.93
14117;BME280;7137;51.436;6.544;2024-01-30T16:07:53;102464.69;;;11.42;77.41
14117;BME280;7137;51.436;6.544;2024-01-30T16:10:55;102470.06;;;11.17;77.93